sensor_id;sensor_type;location;lat;lon;timestamp;temperature;humidity
7846;DHT22;3968;51.424;6.788;2023-09-12T00:00:55;21.80;99.90
7846;DHT22;3968;51.424;6.788;2023-09-12T00:03:22;21.80;99.90
7846;DHT22;3968;51.424;6.788;2023-09-12T00:05:56;21.80;99.90
7846;DHT22;3968;51.424;6.788;2023-09-12T00:08:22;21.80;99.90
7846;DHT22;3968;51.424;6.788;2023-09-12T00:11:09;21.80;99.90
7846;DHT22;3968;51.424;6.788;2023-09-12T00:13:41;21.80;99.90
7846;DHT22;3968;51.424;6.788;2023-09-12T00:16:07;21.80;99.90
7846;DHT22;3968;51.424;6.788;2023-09-12T00:18:35;21.70;99.90
7846;DHT22;3968;51.424;6.788;2023-09-12T00:21:00;21.80;99.90
7846;DHT22;3968;51.424;6.788;2023-09-12T00:23:27;21.80;99.90
7846;DHT22;3968;51.424;6.788;2023-09-12T00:25:52;21.70;99.90
7846;DHT22;3968;51.424;6.788;2023-09-12T00:28:19;21.80;99.90
7846;DHT22;3968;51.424;6.788;2023-09-12T00:30:45;21.80;99.90
7846;DHT22;3968;51.424;6.788;2023-09-12T00:33:10;21.70;99.90
7846;DHT22;3968;51.424;6.788;2023-09-12T00:35:36;21.70;99.90
7846;DHT22;3968;51.424;6.788;2023-09-12T00:38:02;21.70;99.90
7846;DHT22;3968;51.424;6.788;2023-09-12T00:40:28;21.70;99.90
7846;DHT22;3968;51.424;6.788;2023-09-12T00:42:54;21.70;99.90
7846;DHT22;3968;51.424;6.788;2023-09-12T00:45:19;21.60;99.90
7846;DHT22;3968;51.424;6.788;2023-09-12T00:47:46;21.60;99.90
7846;DHT22;3968;51.424;6.788;2023-09-12T00:50:26;21.60;99.90
7846;DHT22;3968;51.424;6.788;2023-09-12T00:52:53;21.50;99.90
7846;DHT22;3968;51.424;6.788;2023-09-12T00:55:19;21.50;99.90
7846;DHT22;3968;51.424;6.788;2023-09-12T00:57:45;21.40;99.90
7846;DHT22;3968;51.424;6.788;2023-09-12T01:00:12;21.40;99.90
7846;DHT22;3968;51.424;6.788;2023-09-12T01:02:40;21.40;99.90
7846;DHT22;3968;51.424;6.788;2023-09-12T01:05:07;21.40;99.90
7846;DHT22;3968;51.424;6.788;2023-09-12T01:07:37;21.40;99.90
7846;DHT22;3968;51.424;6.788;2023-09-12T01:10:04;21.30;99.90
7846;DHT22;3968;51.424;6.788;2023-09-12T01:12:30;21.30;99.90
7846;DHT22;3968;51.424;6.788;2023-09-12T01:14:56;21.30;99.90
7846;DHT22;3968;51.424;6.788;2023-09-12T01:17:23;21.20;99.90
7846;DHT22;3968;51.424;6.788;2023-09-12T01:19:49;21.20;99.90
7846;DHT22;3968;51.424;6.788;2023-09-12T01:22:26;21.20;99.90
7846;DHT22;3968;51.424;6.788;2023-09-12T01:27:45;21.20;99.90
7846;DHT22;3968;51.424;6.788;2023-09-12T01:30:12;21.20;99.90
7846;DHT22;3968;51.424;6.788;2023-09-12T01:32:42;21.20;99.90
7846;DHT22;3968;51.424;6.788;2023-09-12T01:35:08;21.10;99.90
7846;DHT22;3968;51.424;6.788;2023-09-12T01:37:34;21.20;99.90
7846;DHT22;3968;51.424;6.788;2023-09-12T01:39:59;21.10;99.90
7846;DHT22;3968;51.424;6.788;2023-09-12T01:42:31;21.10;99.90
7846;DHT22;3968;51.424;6.788;2023-09-12T01:44:59;21.10;99.90
7846;DHT22;3968;51.424;6.788;2023-09-12T01:47:26;21.10;99.90
7846;DHT22;3968;51.424;6.788;2023-09-12T01:49:56;21.10;99.90
7846;DHT22;3968;51.424;6.788;2023-09-12T01:52:23;21.10;99.90
7846;DHT22;3968;51.424;6.788;2023-09-12T01:54:50;21.10;99.90
7846;DHT22;3968;51.424;6.788;2023-09-12T01:57:16;21.00;99.90
7846;DHT22;3968;51.424;6.788;2023-09-12T01:59:42;21.00;99.90
7846;DHT22;3968;51.424;6.788;2023-09-12T02:02:08;21.00;99.90
7846;DHT22;3968;51.424;6.788;2023-09-12T02:04:33;21.00;99.90
7846;DHT22;3968;51.424;6.788;2023-09-12T02:06:59;21.00;99.90
7846;DHT22;3968;51.424;6.788;2023-09-12T02:09:25;21.00;99.90
7846;DHT22;3968;51.424;6.788;2023-09-12T02:11:51;21.00;99.90
7846;DHT22;3968;51.424;6.788;2023-09-12T02:14:17;21.00;99.90
7846;DHT22;3968;51.424;6.788;2023-09-12T02:16:45;21.00;99.90
7846;DHT22;3968;51.424;6.788;2023-09-12T02:19:11;21.00;99.90
7846;DHT22;3968;51.424;6.788;2023-09-12T02:21:36;20.90;99.90
7846;DHT22;3968;51.424;6.788;2023-09-12T02:24:02;20.90;99.90
7846;DHT22;3968;51.424;6.788;2023-09-12T02:26:27;21.00;99.90
7846;DHT22;3968;51.424;6.788;2023-09-12T02:28:53;20.90;99.90
7846;DHT22;3968;51.424;6.788;2023-09-12T02:31:18;20.90;99.90
7846;DHT22;3968;51.424;6.788;2023-09-12T02:33:45;21.00;99.90
7846;DHT22;3968;51.424;6.788;2023-09-12T02:36:13;20.90;99.90
7846;DHT22;3968;51.424;6.788;2023-09-12T02:38:38;21.00;99.90
7846;DHT22;3968;51.424;6.788;2023-09-12T02:41:04;21.00;99.90
7846;DHT22;3968;51.424;6.788;2023-09-12T02:43:30;21.00;99.90
7846;DHT22;3968;51.424;6.788;2023-09-12T02:45:56;21.00;99.90
7846;DHT22;3968;51.424;6.788;2023-09-12T02:48:21;20.90;99.90
7846;DHT22;3968;51.424;6.788;2023-09-12T02:50:47;21.00;99.90
7846;DHT22;3968;51.424;6.788;2023-09-12T02:53:12;20.90;99.90
7846;DHT22;3968;51.424;6.788;2023-09-12T02:55:42;21.00;99.90
7846;DHT22;3968;51.424;6.788;2023-09-12T02:58:08;20.90;99.90
7846;DHT22;3968;51.424;6.788;2023-09-12T03:00:38;21.00;99.90
7846;DHT22;3968;51.424;6.788;2023-09-12T03:03:05;20.90;99.90
7846;DHT22;3968;51.424;6.788;2023-09-12T03:05:33;20.90;99.90
7846;DHT22;3968;51.424;6.788;2023-09-12T03:07:58;20.90;99.90
7846;DHT22;3968;51.424;6.788;2023-09-12T03:10:24;20.90;99.90
7846;DHT22;3968;51.424;6.788;2023-09-12T03:12:50;20.90;99.90
7846;DHT22;3968;51.424;6.788;2023-09-12T03:15:15;20.80;99.90
7846;DHT22;3968;51.424;6.788;2023-09-12T03:17:41;20.80;99.90
7846;DHT22;3968;51.424;6.788;2023-09-12T03:20:07;20.80;99.90
7846;DHT22;3968;51.424;6.788;2023-09-12T03:22:33;20.80;99.90
7846;DHT22;3968;51.424;6.788;2023-09-12T03:25:03;20.80;99.90
7846;DHT22;3968;51.424;6.788;2023-09-12T03:27:29;20.70;99.90
7846;DHT22;3968;51.424;6.788;2023-09-12T03:29:54;20.70;99.90
7846;DHT22;3968;51.424;6.788;2023-09-12T03:32:20;20.70;99.90
7846;DHT22;3968;51.424;6.788;2023-09-12T03:34:45;20.70;99.90
7846;DHT22;3968;51.424;6.788;2023-09-12T03:37:11;20.80;99.90
7846;DHT22;3968;51.424;6.788;2023-09-12T03:39:36;20.70;99.90
7846;DHT22;3968;51.424;6.788;2023-09-12T03:42:02;20.70;99.90
7846;DHT22;3968;51.424;6.788;2023-09-12T03:44:28;20.60;99.90
7846;DHT22;3968;51.424;6.788;2023-09-12T03:46:53;20.70;99.90
7846;DHT22;3968;51.424;6.788;2023-09-12T03:49:19;20.70;99.90
7846;DHT22;3968;51.424;6.788;2023-09-12T03:51:44;20.60;99.90
7846;DHT22;3968;51.424;6.788;2023-09-12T03:54:10;20.60;99.90
7846;DHT22;3968;51.424;6.788;2023-09-12T03:56:35;20.60;99.90
7846;DHT22;3968;51.424;6.788;2023-09-12T03:59:01;20.60;99.90
7846;DHT22;3968;51.424;6.788;2023-09-12T04:01:28;20.60;99.90
7846;DHT22;3968;51.424;6.788;2023-09-12T04:03:54;20.70;99.90
7846;DHT22;3968;51.424;6.788;2023-09-12T04:06:19;20.60;99.90
7846;DHT22;3968;51.424;6.788;2023-09-12T04:08:45;20.60;99.90
7846;DHT22;3968;51.424;6.788;2023-09-12T04:11:10;20.50;99.90
7846;DHT22;3968;51.424;6.788;2023-09-12T04:13:36;20.60;99.90
7846;DHT22;3968;51.424;6.788;2023-09-12T04:16:02;20.50;99.90
7846;DHT22;3968;51.424;6.788;2023-09-12T04:18:28;20.50;99.90
7846;DHT22;3968;51.424;6.788;2023-09-12T04:20:53;20.50;99.90
7846;DHT22;3968;51.424;6.788;2023-09-12T04:23:21;20.50;99.90
7846;DHT22;3968;51.424;6.788;2023-09-12T04:25:47;20.50;99.90
7846;DHT22;3968;51.424;6.788;2023-09-12T04:28:12;20.50;99.90
7846;DHT22;3968;51.424;6.788;2023-09-12T04:30:38;20.40;99.90
7846;DHT22;3968;51.424;6.788;2023-09-12T04:33:05;20.50;99.90
7846;DHT22;3968;51.424;6.788;2023-09-12T04:35:33;20.50;99.90
7846;DHT22;3968;51.424;6.788;2023-09-12T04:37:59;20.40;99.90
7846;DHT22;3968;51.424;6.788;2023-09-12T04:40:24;20.40;99.90
7846;DHT22;3968;51.424;6.788;2023-09-12T04:42:50;20.50;99.90
7846;DHT22;3968;51.424;6.788;2023-09-12T04:45:15;20.50;99.90
7846;DHT22;3968;51.424;6.788;2023-09-12T04:47:41;20.40;99.90
7846;DHT22;3968;51.424;6.788;2023-09-12T04:50:07;20.50;99.90
7846;DHT22;3968;51.424;6.788;2023-09-12T04:52:37;20.40;99.90
7846;DHT22;3968;51.424;6.788;2023-09-12T04:55:03;20.40;99.90
7846;DHT22;3968;51.424;6.788;2023-09-12T04:57:29;20.40;99.90
7846;DHT22;3968;51.424;6.788;2023-09-12T04:59:56;20.40;99.90
7846;DHT22;3968;51.424;6.788;2023-09-12T05:02:22;20.50;99.90
7846;DHT22;3968;51.424;6.788;2023-09-12T05:04:48;20.40;99.90
7846;DHT22;3968;51.424;6.788;2023-09-12T05:07:13;20.50;99.90
7846;DHT22;3968;51.424;6.788;2023-09-12T05:09:39;20.40;99.90
7846;DHT22;3968;51.424;6.788;2023-09-12T05:12:05;20.40;99.90
7846;DHT22;3968;51.424;6.788;2023-09-12T05:14:30;20.40;99.90
7846;DHT22;3968;51.424;6.788;2023-09-12T05:16:56;20.40;99.90
7846;DHT22;3968;51.424;6.788;2023-09-12T05:19:22;20.50;99.90
7846;DHT22;3968;51.424;6.788;2023-09-12T05:21:48;20.40;99.90
7846;DHT22;3968;51.424;6.788;2023-09-12T05:24:14;20.40;99.90
7846;DHT22;3968;51.424;6.788;2023-09-12T05:26:39;20.50;99.90
7846;DHT22;3968;51.424;6.788;2023-09-12T05:29:05;20.50;99.90
7846;DHT22;3968;51.424;6.788;2023-09-12T05:31:31;20.50;99.90
7846;DHT22;3968;51.424;6.788;2023-09-12T05:33:57;20.50;99.90
7846;DHT22;3968;51.424;6.788;2023-09-12T05:36:22;20.60;99.90
7846;DHT22;3968;51.424;6.788;2023-09-12T05:38:48;20.60;99.90
7846;DHT22;3968;51.424;6.788;2023-09-12T05:41:13;20.60;99.90
7846;DHT22;3968;51.424;6.788;2023-09-12T05:43:39;20.60;99.90
7846;DHT22;3968;51.424;6.788;2023-09-12T05:46:05;20.60;99.90
7846;DHT22;3968;51.424;6.788;2023-09-12T05:48:30;20.60;99.90
7846;DHT22;3968;51.424;6.788;2023-09-12T05:50:56;20.60;99.90
7846;DHT22;3968;51.424;6.788;2023-09-12T05:53:21;20.70;99.90
7846;DHT22;3968;51.424;6.788;2023-09-12T05:55:47;20.70;99.90
7846;DHT22;3968;51.424;6.788;2023-09-12T05:58:13;20.70;99.90
7846;DHT22;3968;51.424;6.788;2023-09-12T06:00:38;20.70;99.90
7846;DHT22;3968;51.424;6.788;2023-09-12T06:03:04;20.70;99.90
7846;DHT22;3968;51.424;6.788;2023-09-12T06:05:30;20.70;99.90
7846;DHT22;3968;51.424;6.788;2023-09-12T06:07:55;20.80;99.90
7846;DHT22;3968;51.424;6.788;2023-09-12T06:10:21;20.80;99.90
7846;DHT22;3968;51.424;6.788;2023-09-12T06:12:47;20.80;99.90
7846;DHT22;3968;51.424;6.788;2023-09-12T06:15:15;20.90;99.90
7846;DHT22;3968;51.424;6.788;2023-09-12T06:21:03;20.70;99.90
7846;DHT22;3968;51.424;6.788;2023-09-12T06:23:31;20.60;99.90
7846;DHT22;3968;51.424;6.788;2023-09-12T06:25:57;20.50;99.90
7846;DHT22;3968;51.424;6.788;2023-09-12T06:28:30;20.30;99.90
7846;DHT22;3968;51.424;6.788;2023-09-12T06:30:56;20.10;99.90
7846;DHT22;3968;51.424;6.788;2023-09-12T06:33:25;19.90;99.90
7846;DHT22;3968;51.424;6.788;2023-09-12T06:35:52;19.80;99.90
7846;DHT22;3968;51.424;6.788;2023-09-12T06:38:22;19.70;99.90
7846;DHT22;3968;51.424;6.788;2023-09-12T06:40:47;19.70;99.90
7846;DHT22;3968;51.424;6.788;2023-09-12T06:43:13;19.70;99.90
7846;DHT22;3968;51.424;6.788;2023-09-12T06:45:43;19.60;99.90
7846;DHT22;3968;51.424;6.788;2023-09-12T06:48:09;19.50;99.90
7846;DHT22;3968;51.424;6.788;2023-09-12T06:50:35;19.60;99.90
7846;DHT22;3968;51.424;6.788;2023-09-12T06:53:03;19.50;99.90
7846;DHT22;3968;51.424;6.788;2023-09-12T06:55:29;19.50;99.90
7846;DHT22;3968;51.424;6.788;2023-09-12T06:57:54;19.30;99.90
7846;DHT22;3968;51.424;6.788;2023-09-12T07:00:20;19.40;99.90
7846;DHT22;3968;51.424;6.788;2023-09-12T07:02:45;19.40;99.90
7846;DHT22;3968;51.424;6.788;2023-09-12T07:05:11;19.30;99.90
7846;DHT22;3968;51.424;6.788;2023-09-12T07:07:37;19.30;99.90
7846;DHT22;3968;51.424;6.788;2023-09-12T07:10:03;19.30;99.90
7846;DHT22;3968;51.424;6.788;2023-09-12T07:12:29;19.30;99.90
7846;DHT22;3968;51.424;6.788;2023-09-12T07:14:54;19.40;99.90
7846;DHT22;3968;51.424;6.788;2023-09-12T07:17:21;19.40;99.90
7846;DHT22;3968;51.424;6.788;2023-09-12T07:19:47;19.30;99.90
7846;DHT22;3968;51.424;6.788;2023-09-12T07:22:12;19.20;99.90
7846;DHT22;3968;51.424;6.788;2023-09-12T07:24:38;19.20;99.90
7846;DHT22;3968;51.424;6.788;2023-09-12T07:27:04;19.40;99.90
7846;DHT22;3968;51.424;6.788;2023-09-12T07:29:29;19.30;99.90
7846;DHT22;3968;51.424;6.788;2023-09-12T07:31:55;19.40;99.90
7846;DHT22;3968;51.424;6.788;2023-09-12T07:34:21;19.40;99.90
7846;DHT22;3968;51.424;6.788;2023-09-12T07:36:46;19.40;99.90
7846;DHT22;3968;51.424;6.788;2023-09-12T07:39:12;19.40;99.90
7846;DHT22;3968;51.424;6.788;2023-09-12T07:41:38;19.60;99.90
7846;DHT22;3968;51.424;6.788;2023-09-12T07:44:04;19.60;99.90
7846;DHT22;3968;51.424;6.788;2023-09-12T07:46:30;19.80;99.90
7846;DHT22;3968;51.424;6.788;2023-09-12T07:48:56;19.90;99.90
7846;DHT22;3968;51.424;6.788;2023-09-12T07:51:22;19.90;99.90
7846;DHT22;3968;51.424;6.788;2023-09-12T07:53:48;20.10;99.90
7846;DHT22;3968;51.424;6.788;2023-09-12T07:56:14;20.20;99.90
7846;DHT22;3968;51.424;6.788;2023-09-12T07:58:40;20.20;99.90
7846;DHT22;3968;51.424;6.788;2023-09-12T08:01:07;20.30;99.90
7846;DHT22;3968;51.424;6.788;2023-09-12T08:03:34;20.30;99.90
7846;DHT22;3968;51.424;6.788;2023-09-12T08:06:02;20.40;99.90
7846;DHT22;3968;51.424;6.788;2023-09-12T08:08:29;20.40;99.90
7846;DHT22;3968;51.424;6.788;2023-09-12T08:10:56;20.40;99.90
7846;DHT22;3968;51.424;6.788;2023-09-12T08:13:25;20.50;99.90
7846;DHT22;3968;51.424;6.788;2023-09-12T08:15:50;20.50;99.90
7846;DHT22;3968;51.424;6.788;2023-09-12T08:18:16;20.50;99.90
7846;DHT22;3968;51.424;6.788;2023-09-12T08:20:42;20.60;99.90
7846;DHT22;3968;51.424;6.788;2023-09-12T08:23:08;20.70;99.90
7846;DHT22;3968;51.424;6.788;2023-09-12T08:25:34;20.80;99.90
7846;DHT22;3968;51.424;6.788;2023-09-12T08:27:59;20.80;99.90
7846;DHT22;3968;51.424;6.788;2023-09-12T08:30:25;20.90;99.90
7846;DHT22;3968;51.424;6.788;2023-09-12T08:32:51;21.00;99.90
7846;DHT22;3968;51.424;6.788;2023-09-12T08:35:16;21.00;99.90
7846;DHT22;3968;51.424;6.788;2023-09-12T08:37:42;21.10;99.90
7846;DHT22;3968;51.424;6.788;2023-09-12T08:40:09;21.20;99.90
7846;DHT22;3968;51.424;6.788;2023-09-12T08:42:40;21.20;99.90
7846;DHT22;3968;51.424;6.788;2023-09-12T08:45:11;21.30;99.90
7846;DHT22;3968;51.424;6.788;2023-09-12T08:47:40;21.40;99.90
7846;DHT22;3968;51.424;6.788;2023-09-12T08:50:10;21.40;99.90
7846;DHT22;3968;51.424;6.788;2023-09-12T08:52:36;21.50;99.90
7846;DHT22;3968;51.424;6.788;2023-09-12T08:55:02;21.50;99.90
7846;DHT22;3968;51.424;6.788;2023-09-12T08:57:30;21.60;99.90
7846;DHT22;3968;51.424;6.788;2023-09-12T08:59:56;21.60;99.90
7846;DHT22;3968;51.424;6.788;2023-09-12T09:02:22;21.60;99.90
7846;DHT22;3968;51.424;6.788;2023-09-12T09:04:49;21.60;99.90
7846;DHT22;3968;51.424;6.788;2023-09-12T09:07:16;21.50;99.90
7846;DHT22;3968;51.424;6.788;2023-09-12T09:09:43;21.60;99.90
7846;DHT22;3968;51.424;6.788;2023-09-12T09:12:09;21.60;99.90
7846;DHT22;3968;51.424;6.788;2023-09-12T09:14:36;21.70;99.90
7846;DHT22;3968;51.424;6.788;2023-09-12T09:17:01;21.70;99.90
7846;DHT22;3968;51.424;6.788;2023-09-12T09:19:40;21.70;99.90
7846;DHT22;3968;51.424;6.788;2023-09-12T09:22:07;21.70;99.90
7846;DHT22;3968;51.424;6.788;2023-09-12T09:24:33;21.70;99.90
7846;DHT22;3968;51.424;6.788;2023-09-12T09:26:58;21.70;99.90
7846;DHT22;3968;51.424;6.788;2023-09-12T09:29:28;21.60;99.90
7846;DHT22;3968;51.424;6.788;2023-09-12T09:32:02;21.70;99.90
7846;DHT22;3968;51.424;6.788;2023-09-12T09:34:30;21.60;99.90
7846;DHT22;3968;51.424;6.788;2023-09-12T09:36:58;21.80;99.90
7846;DHT22;3968;51.424;6.788;2023-09-12T09:39:28;21.80;99.90
7846;DHT22;3968;51.424;6.788;2023-09-12T09:41:55;21.90;99.90
7846;DHT22;3968;51.424;6.788;2023-09-12T09:44:23;21.90;99.90
7846;DHT22;3968;51.424;6.788;2023-09-12T09:47:00;21.90;99.90
7846;DHT22;3968;51.424;6.788;2023-09-12T09:49:28;22.00;99.90
7846;DHT22;3968;51.424;6.788;2023-09-12T09:51:56;22.20;99.90
7846;DHT22;3968;51.424;6.788;2023-09-12T09:54:25;22.40;99.90
7846;DHT22;3968;51.424;6.788;2023-09-12T09:56:54;22.40;99.90
7846;DHT22;3968;51.424;6.788;2023-09-12T09:59:24;22.50;99.90
7846;DHT22;3968;51.424;6.788;2023-09-12T10:01:54;22.50;99.90
7846;DHT22;3968;51.424;6.788;2023-09-12T10:04:21;22.50;99.90
7846;DHT22;3968;51.424;6.788;2023-09-12T10:06:49;22.50;99.90
7846;DHT22;3968;51.424;6.788;2023-09-12T10:09:16;22.50;99.90
7846;DHT22;3968;51.424;6.788;2023-09-12T10:11:47;22.50;99.90
7846;DHT22;3968;51.424;6.788;2023-09-12T10:14:15;22.40;99.90
7846;DHT22;3968;51.424;6.788;2023-09-12T10:16:48;22.40;99.90
7846;DHT22;3968;51.424;6.788;2023-09-12T10:19:17;22.30;99.90
7846;DHT22;3968;51.424;6.788;2023-09-12T10:22:25;22.20;99.90
7846;DHT22;3968;51.424;6.788;2023-09-12T10:24:53;22.20;99.90
7846;DHT22;3968;51.424;6.788;2023-09-12T10:27:22;22.30;99.90
7846;DHT22;3968;51.424;6.788;2023-09-12T10:29:49;22.30;99.90
7846;DHT22;3968;51.424;6.788;2023-09-12T10:32:19;22.40;99.90
7846;DHT22;3968;51.424;6.788;2023-09-12T10:34:46;22.40;99.90
7846;DHT22;3968;51.424;6.788;2023-09-12T10:37:17;22.50;99.90
7846;DHT22;3968;51.424;6.788;2023-09-12T10:39:45;22.50;99.90
7846;DHT22;3968;51.424;6.788;2023-09-12T10:42:12;22.60;99.90
7846;DHT22;3968;51.424;6.788;2023-09-12T10:44:38;22.60;99.90
7846;DHT22;3968;51.424;6.788;2023-09-12T10:47:04;22.70;99.90
7846;DHT22;3968;51.424;6.788;2023-09-12T10:49:31;22.70;99.90
7846;DHT22;3968;51.424;6.788;2023-09-12T10:51:57;22.80;99.90
7846;DHT22;3968;51.424;6.788;2023-09-12T10:54:25;22.80;99.90
7846;DHT22;3968;51.424;6.788;2023-09-12T10:57:07;22.90;99.90
7846;DHT22;3968;51.424;6.788;2023-09-12T10:59:34;22.90;99.90
7846;DHT22;3968;51.424;6.788;2023-09-12T11:02:36;22.90;99.90
7846;DHT22;3968;51.424;6.788;2023-09-12T11:07:49;23.00;99.90
7846;DHT22;3968;51.424;6.788;2023-09-12T11:10:16;23.00;99.90
7846;DHT22;3968;51.424;6.788;2023-09-12T11:12:49;23.10;99.90
7846;DHT22;3968;51.424;6.788;2023-09-12T11:15:15;23.10;99.90
7846;DHT22;3968;51.424;6.788;2023-09-12T11:17:46;23.20;99.90
7846;DHT22;3968;51.424;6.788;2023-09-12T11:20:13;23.20;99.90
7846;DHT22;3968;51.424;6.788;2023-09-12T11:22:46;23.30;99.90
7846;DHT22;3968;51.424;6.788;2023-09-12T11:25:19;23.40;99.90
7846;DHT22;3968;51.424;6.788;2023-09-12T11:27:46;23.50;99.90
7846;DHT22;3968;51.424;6.788;2023-09-12T11:30:26;23.50;99.90
7846;DHT22;3968;51.424;6.788;2023-09-12T11:32:56;23.40;99.90
7846;DHT22;3968;51.424;6.788;2023-09-12T11:35:24;23.50;99.90
7846;DHT22;3968;51.424;6.788;2023-09-12T11:37:54;23.50;99.90
7846;DHT22;3968;51.424;6.788;2023-09-12T11:40:26;23.60;99.90
7846;DHT22;3968;51.424;6.788;2023-09-12T11:42:52;23.60;99.90
7846;DHT22;3968;51.424;6.788;2023-09-12T11:45:19;23.60;99.90
7846;DHT22;3968;51.424;6.788;2023-09-12T11:47:46;23.70;99.90
7846;DHT22;3968;51.424;6.788;2023-09-12T11:50:31;23.80;99.90
7846;DHT22;3968;51.424;6.788;2023-09-12T11:53:05;23.80;99.90
7846;DHT22;3968;51.424;6.788;2023-09-12T11:56:17;23.80;99.90
7846;DHT22;3968;51.424;6.788;2023-09-12T11:58:18;23.80;99.90
7846;DHT22;3968;51.424;6.788;2023-09-12T12:03:15;23.90;99.90
7846;DHT22;3968;51.424;6.788;2023-09-12T12:05:41;23.90;99.90
7846;DHT22;3968;51.424;6.788;2023-09-12T12:08:08;23.80;99.90
7846;DHT22;3968;51.424;6.788;2023-09-12T12:10:34;23.90;99.90
7846;DHT22;3968;51.424;6.788;2023-09-12T12:13:00;23.90;99.90
7846;DHT22;3968;51.424;6.788;2023-09-12T12:15:29;23.90;99.90
7846;DHT22;3968;51.424;6.788;2023-09-12T12:17:55;23.90;99.90
7846;DHT22;3968;51.424;6.788;2023-09-12T12:20:21;23.80;99.90
7846;DHT22;3968;51.424;6.788;2023-09-12T12:22:47;23.80;99.90
7846;DHT22;3968;51.424;6.788;2023-09-12T12:25:14;23.90;99.90
7846;DHT22;3968;51.424;6.788;2023-09-12T12:27:41;23.90;99.90
7846;DHT22;3968;51.424;6.788;2023-09-12T12:30:09;23.90;99.90
7846;DHT22;3968;51.424;6.788;2023-09-12T12:32:46;23.80;99.90
7846;DHT22;3968;51.424;6.788;2023-09-12T12:35:22;23.80;99.90
7846;DHT22;3968;51.424;6.788;2023-09-12T12:37:53;23.80;99.90
7846;DHT22;3968;51.424;6.788;2023-09-12T12:40:19;23.80;99.90
7846;DHT22;3968;51.424;6.788;2023-09-12T12:42:45;23.80;99.90
7846;DHT22;3968;51.424;6.788;2023-09-12T12:45:16;23.80;99.90
7846;DHT22;3968;51.424;6.788;2023-09-12T12:47:42;23.80;99.90
7846;DHT22;3968;51.424;6.788;2023-09-12T12:50:12;23.80;99.90
7846;DHT22;3968;51.424;6.788;2023-09-12T12:52:38;23.80;99.90
7846;DHT22;3968;51.424;6.788;2023-09-12T12:55:11;23.90;99.90
7846;DHT22;3968;51.424;6.788;2023-09-12T12:57:41;24.00;99.90
7846;DHT22;3968;51.424;6.788;2023-09-12T13:00:10;23.90;99.90
7846;DHT22;3968;51.424;6.788;2023-09-12T13:02:40;24.00;99.90
7846;DHT22;3968;51.424;6.788;2023-09-12T13:05:20;23.90;99.90
7846;DHT22;3968;51.424;6.788;2023-09-12T13:07:46;23.90;99.90
7846;DHT22;3968;51.424;6.788;2023-09-12T13:10:12;23.90;99.90
7846;DHT22;3968;51.424;6.788;2023-09-12T13:12:37;23.90;99.90
7846;DHT22;3968;51.424;6.788;2023-09-12T13:15:04;23.90;99.90
7846;DHT22;3968;51.424;6.788;2023-09-12T13:17:30;23.90;99.90
7846;DHT22;3968;51.424;6.788;2023-09-12T13:19:56;23.90;99.90
7846;DHT22;3968;51.424;6.788;2023-09-12T13:22:21;23.90;99.90
7846;DHT22;3968;51.424;6.788;2023-09-12T13:24:47;23.90;99.90
7846;DHT22;3968;51.424;6.788;2023-09-12T13:27:13;23.90;99.90
7846;DHT22;3968;51.424;6.788;2023-09-12T13:29:39;23.90;99.90
7846;DHT22;3968;51.424;6.788;2023-09-12T13:32:05;24.00;99.90
7846;DHT22;3968;51.424;6.788;2023-09-12T13:34:30;24.10;99.90
7846;DHT22;3968;51.424;6.788;2023-09-12T13:36:56;24.20;99.90
7846;DHT22;3968;51.424;6.788;2023-09-12T13:39:25;24.20;99.90
7846;DHT22;3968;51.424;6.788;2023-09-12T13:41:50;24.20;99.90
7846;DHT22;3968;51.424;6.788;2023-09-12T13:44:17;24.10;99.90
7846;DHT22;3968;51.424;6.788;2023-09-12T13:46:45;24.10;99.90
7846;DHT22;3968;51.424;6.788;2023-09-12T13:49:12;24.00;99.90
7846;DHT22;3968;51.424;6.788;2023-09-12T13:51:38;24.00;99.90
7846;DHT22;3968;51.424;6.788;2023-09-12T13:54:04;24.00;99.90
7846;DHT22;3968;51.424;6.788;2023-09-12T13:56:29;24.00;99.90
7846;DHT22;3968;51.424;6.788;2023-09-12T13:58:55;24.10;99.90
7846;DHT22;3968;51.424;6.788;2023-09-12T14:01:21;24.20;99.90
7846;DHT22;3968;51.424;6.788;2023-09-12T14:03:48;24.30;99.90
7846;DHT22;3968;51.424;6.788;2023-09-12T14:06:13;24.40;99.90
7846;DHT22;3968;51.424;6.788;2023-09-12T14:08:39;24.50;99.90
7846;DHT22;3968;51.424;6.788;2023-09-12T14:11:04;24.50;99.90
7846;DHT22;3968;51.424;6.788;2023-09-12T14:13:30;24.50;99.90
7846;DHT22;3968;51.424;6.788;2023-09-12T14:15:56;24.50;99.90
7846;DHT22;3968;51.424;6.788;2023-09-12T14:18:21;24.40;99.90
7846;DHT22;3968;51.424;6.788;2023-09-12T14:20:47;24.30;99.90
7846;DHT22;3968;51.424;6.788;2023-09-12T14:23:13;24.30;99.90
7846;DHT22;3968;51.424;6.788;2023-09-12T14:25:38;24.30;99.90
7846;DHT22;3968;51.424;6.788;2023-09-12T14:28:04;24.30;99.90
7846;DHT22;3968;51.424;6.788;2023-09-12T14:30:30;24.30;99.90
7846;DHT22;3968;51.424;6.788;2023-09-12T14:33:02;24.30;99.90
7846;DHT22;3968;51.424;6.788;2023-09-12T14:35:28;24.30;99.90
7846;DHT22;3968;51.424;6.788;2023-09-12T14:37:53;24.30;99.90
7846;DHT22;3968;51.424;6.788;2023-09-12T14:40:19;24.30;99.90
7846;DHT22;3968;51.424;6.788;2023-09-12T14:42:45;24.40;99.90
7846;DHT22;3968;51.424;6.788;2023-09-12T14:45:10;24.40;99.90
7846;DHT22;3968;51.424;6.788;2023-09-12T14:47:36;24.40;99.90
7846;DHT22;3968;51.424;6.788;2023-09-12T14:50:02;24.40;99.90
7846;DHT22;3968;51.424;6.788;2023-09-12T14:52:28;24.40;99.90
7846;DHT22;3968;51.424;6.788;2023-09-12T14:54:53;24.50;99.90
7846;DHT22;3968;51.424;6.788;2023-09-12T14:57:19;24.50;99.90
7846;DHT22;3968;51.424;6.788;2023-09-12T14:59:45;24.60;99.90
7846;DHT22;3968;51.424;6.788;2023-09-12T15:02:11;24.70;99.90
7846;DHT22;3968;51.424;6.788;2023-09-12T15:04:37;24.70;99.90
7846;DHT22;3968;51.424;6.788;2023-09-12T15:07:02;24.70;99.90
7846;DHT22;3968;51.424;6.788;2023-09-12T15:09:29;24.70;99.90
7846;DHT22;3968;51.424;6.788;2023-09-12T15:11:54;24.70;99.90
7846;DHT22;3968;51.424;6.788;2023-09-12T15:14:20;24.70;99.90
7846;DHT22;3968;51.424;6.788;2023-09-12T15:16:45;24.70;99.90
7846;DHT22;3968;51.424;6.788;2023-09-12T15:19:11;24.70;99.90
7846;DHT22;3968;51.424;6.788;2023-09-12T15:21:36;24.70;99.90
7846;DHT22;3968;51.424;6.788;2023-09-12T15:24:02;24.60;99.90
7846;DHT22;3968;51.424;6.788;2023-09-12T15:26:29;24.60;99.90
7846;DHT22;3968;51.424;6.788;2023-09-12T15:28:54;24.50;99.90
7846;DHT22;3968;51.424;6.788;2023-09-12T15:31:20;24.50;99.90
7846;DHT22;3968;51.424;6.788;2023-09-12T15:33:45;24.50;99.90
7846;DHT22;3968;51.424;6.788;2023-09-12T15:36:11;24.50;99.90
7846;DHT22;3968;51.424;6.788;2023-09-12T15:38:37;24.50;99.90
7846;DHT22;3968;51.424;6.788;2023-09-12T15:41:03;24.50;99.90
7846;DHT22;3968;51.424;6.788;2023-09-12T15:43:30;24.50;99.90
7846;DHT22;3968;51.424;6.788;2023-09-12T15:45:55;24.50;99.90
7846;DHT22;3968;51.424;6.788;2023-09-12T15:48:21;24.50;99.90
7846;DHT22;3968;51.424;6.788;2023-09-12T15:50:47;24.50;99.90
7846;DHT22;3968;51.424;6.788;2023-09-12T15:53:13;24.50;99.90
7846;DHT22;3968;51.424;6.788;2023-09-12T15:55:38;24.50;99.90
7846;DHT22;3968;51.424;6.788;2023-09-12T15:58:04;24.50;99.90
7846;DHT22;3968;51.424;6.788;2023-09-12T16:00:29;24.50;99.90
7846;DHT22;3968;51.424;6.788;2023-09-12T16:02:55;24.60;99.90
7846;DHT22;3968;51.424;6.788;2023-09-12T16:05:21;24.60;99.90
7846;DHT22;3968;51.424;6.788;2023-09-12T16:07:46;24.60;99.90
7846;DHT22;3968;51.424;6.788;2023-09-12T16:10:12;24.60;99.90
7846;DHT22;3968;51.424;6.788;2023-09-12T16:12:40;24.60;99.90